sensor_id;sensor_type;location;lat;lon;timestamp;temperature;humidity
85671;DHT22;76102;50.890;3.932;2024-02-28T00:01:55;2.70;89.60
85671;DHT22;76102;50.890;3.932;2024-02-28T00:04:20;2.60;90.20
85671;DHT22;76102;50.890;3.932;2024-02-28T00:06:48;2.70;90.30
85671;DHT22;76102;50.890;3.932;2024-02-28T00:09:14;2.70;90.10
85671;DHT22;76102;50.890;3.932;2024-02-28T00:11:48;2.70;90.10
85671;DHT22;76102;50.890;3.932;2024-02-28T00:14:14;2.80;89.20
85671;DHT22;76102;50.890;3.932;2024-02-28T00:16:46;2.90;88.10
85671;DHT22;76102;50.890;3.932;2024-02-28T00:19:12;3.10;85.90
85671;DHT22;76102;50.890;3.932;2024-02-28T00:21:40;3.20;85.60
85671;DHT22;76102;50.890;3.932;2024-02-28T00:24:06;3.40;84.50
85671;DHT22;76102;50.890;3.932;2024-02-28T00:26:32;2.90;86.10
85671;DHT22;76102;50.890;3.932;2024-02-28T00:28:58;2.60;87.70
85671;DHT22;76102;50.890;3.932;2024-02-28T00:31:23;2.60;88.00
85671;DHT22;76102;50.890;3.932;2024-02-28T00:33:54;2.50;88.50
85671;DHT22;76102;50.890;3.932;2024-02-28T00:36:19;2.40;89.10
85671;DHT22;76102;50.890;3.932;2024-02-28T00:38:47;2.30;89.00
85671;DHT22;76102;50.890;3.932;2024-02-28T00:41:15;2.40;88.40
85671;DHT22;76102;50.890;3.932;2024-02-28T00:43:41;2.30;88.40
85671;DHT22;76102;50.890;3.932;2024-02-28T00:46:06;2.30;89.00
85671;DHT22;76102;50.890;3.932;2024-02-28T00:48:40;2.40;88.30
85671;DHT22;76102;50.890;3.932;2024-02-28T00:51:05;2.30;88.40
85671;DHT22;76102;50.890;3.932;2024-02-28T00:53:34;2.30;89.00
85671;DHT22;76102;50.890;3.932;2024-02-28T00:55:59;2.30;89.30
85671;DHT22;76102;50.890;3.932;2024-02-28T00:58:28;2.40;89.60
85671;DHT22;76102;50.890;3.932;2024-02-28T01:00:56;2.40;88.60
85671;DHT22;76102;50.890;3.932;2024-02-28T01:03:26;2.50;89.10
85671;DHT22;76102;50.890;3.932;2024-02-28T01:05:54;2.60;88.40
85671;DHT22;76102;50.890;3.932;2024-02-28T01:08:26;2.20;88.60
85671;DHT22;76102;50.890;3.932;2024-02-28T01:10:52;1.90;90.30
85671;DHT22;76102;50.890;3.932;2024-02-28T01:13:20;1.90;90.80
85671;DHT22;76102;50.890;3.932;2024-02-28T01:15:51;1.80;90.80
85671;DHT22;76102;50.890;3.932;2024-02-28T01:18:16;1.90;90.60
85671;DHT22;76102;50.890;3.932;2024-02-28T01:20:44;2.20;90.20
85671;DHT22;76102;50.890;3.932;2024-02-28T01:23:12;2.20;89.40
85671;DHT22;76102;50.890;3.932;2024-02-28T01:25:42;2.10;89.30
85671;DHT22;76102;50.890;3.932;2024-02-28T01:28:10;2.10;89.30
85671;DHT22;76102;50.890;3.932;2024-02-28T01:30:36;2.00;89.60
85671;DHT22;76102;50.890;3.932;2024-02-28T01:33:01;1.90;90.00
85671;DHT22;76102;50.890;3.932;2024-02-28T01:35:27;1.80;90.20
85671;DHT22;76102;50.890;3.932;2024-02-28T01:37:55;1.80;90.00
85671;DHT22;76102;50.890;3.932;2024-02-28T01:40:21;2.00;89.20
85671;DHT22;76102;50.890;3.932;2024-02-28T01:42:49;1.90;89.60
85671;DHT22;76102;50.890;3.932;2024-02-28T01:45:14;1.70;89.90
85671;DHT22;76102;50.890;3.932;2024-02-28T01:47:43;1.70;90.30
85671;DHT22;76102;50.890;3.932;2024-02-28T01:50:09;1.60;90.60
85671;DHT22;76102;50.890;3.932;2024-02-28T01:52:40;1.60;90.80
85671;DHT22;76102;50.890;3.932;2024-02-28T01:55:06;1.50;91.10
85671;DHT22;76102;50.890;3.932;2024-02-28T01:57:39;1.50;91.20
85671;DHT22;76102;50.890;3.932;2024-02-28T02:00:06;1.60;91.20
85671;DHT22;76102;50.890;3.932;2024-02-28T02:02:37;1.60;90.40
85671;DHT22;76102;50.890;3.932;2024-02-28T02:05:03;1.60;90.30
85671;DHT22;76102;50.890;3.932;2024-02-28T02:07:30;1.60;90.20
85671;DHT22;76102;50.890;3.932;2024-02-28T02:09:58;1.60;90.20
85671;DHT22;76102;50.890;3.932;2024-02-28T02:12:24;1.80;90.00
85671;DHT22;76102;50.890;3.932;2024-02-28T02:14:50;1.80;89.10
85671;DHT22;76102;50.890;3.932;2024-02-28T02:17:15;1.80;90.00
85671;DHT22;76102;50.890;3.932;2024-02-28T02:19:44;1.80;89.90
85671;DHT22;76102;50.890;3.932;2024-02-28T02:22:14;1.70;89.90
85671;DHT22;76102;50.890;3.932;2024-02-28T02:24:40;1.60;90.00
85671;DHT22;76102;50.890;3.932;2024-02-28T02:27:06;1.60;90.10
85671;DHT22;76102;50.890;3.932;2024-02-28T02:29:32;1.60;90.00
85671;DHT22;76102;50.890;3.932;2024-02-28T02:31:57;1.60;90.20
85671;DHT22;76102;50.890;3.932;2024-02-28T02:34:23;1.60;90.30
85671;DHT22;76102;50.890;3.932;2024-02-28T02:36:48;1.60;90.10
85671;DHT22;76102;50.890;3.932;2024-02-28T02:39:14;1.50;90.20
85671;DHT22;76102;50.890;3.932;2024-02-28T02:41:40;1.50;90.20
85671;DHT22;76102;50.890;3.932;2024-02-28T02:44:07;1.40;90.30
85671;DHT22;76102;50.890;3.932;2024-02-28T02:46:35;1.40;90.40
85671;DHT22;76102;50.890;3.932;2024-02-28T02:49:01;1.30;90.60
85671;DHT22;76102;50.890;3.932;2024-02-28T02:51:26;1.30;90.60
85671;DHT22;76102;50.890;3.932;2024-02-28T02:53:54;1.50;90.40
85671;DHT22;76102;50.890;3.932;2024-02-28T02:56:22;1.70;90.20
85671;DHT22;76102;50.890;3.932;2024-02-28T02:58:50;1.70;89.80
85671;DHT22;76102;50.890;3.932;2024-02-28T03:01:18;1.40;90.10
85671;DHT22;76102;50.890;3.932;2024-02-28T03:03:45;1.40;90.20
85671;DHT22;76102;50.890;3.932;2024-02-28T03:06:11;1.50;90.00
85671;DHT22;76102;50.890;3.932;2024-02-28T03:08:36;1.50;90.00
85671;DHT22;76102;50.890;3.932;2024-02-28T03:11:02;1.40;90.10
85671;DHT22;76102;50.890;3.932;2024-02-28T03:13:36;1.40;90.10
85671;DHT22;76102;50.890;3.932;2024-02-28T03:16:03;1.40;89.60
85671;DHT22;76102;50.890;3.932;2024-02-28T03:18:29;1.30;89.80
85671;DHT22;76102;50.890;3.932;2024-02-28T03:20:55;1.40;90.30
85671;DHT22;76102;50.890;3.932;2024-02-28T03:23:20;1.40;89.70
85671;DHT22;76102;50.890;3.932;2024-02-28T03:25:46;1.30;89.90
85671;DHT22;76102;50.890;3.932;2024-02-28T03:28:12;1.20;90.40
85671;DHT22;76102;50.890;3.932;2024-02-28T03:30:39;1.30;90.50
85671;DHT22;76102;50.890;3.932;2024-02-28T03:33:10;1.30;90.40
85671;DHT22;76102;50.890;3.932;2024-02-28T03:35:35;1.30;90.40
85671;DHT22;76102;50.890;3.932;2024-02-28T03:38:01;1.30;90.80
85671;DHT22;76102;50.890;3.932;2024-02-28T03:40:29;1.30;90.60
85671;DHT22;76102;50.890;3.932;2024-02-28T03:42:55;1.20;90.70
85671;DHT22;76102;50.890;3.932;2024-02-28T03:45:23;1.20;90.80
85671;DHT22;76102;50.890;3.932;2024-02-28T03:47:48;1.20;90.80
85671;DHT22;76102;50.890;3.932;2024-02-28T03:50:14;1.10;90.80
85671;DHT22;76102;50.890;3.932;2024-02-28T03:52:42;1.10;90.70
85671;DHT22;76102;50.890;3.932;2024-02-28T03:55:11;1.20;90.90
85671;DHT22;76102;50.890;3.932;2024-02-28T03:57:39;1.30;90.60
85671;DHT22;76102;50.890;3.932;2024-02-28T04:00:07;1.30;90.50
85671;DHT22;76102;50.890;3.932;2024-02-28T04:02:36;1.30;90.20
85671;DHT22;76102;50.890;3.932;2024-02-28T04:05:02;1.40;90.20
85671;DHT22;76102;50.890;3.932;2024-02-28T04:07:27;1.60;89.40
85671;DHT22;76102;50.890;3.932;2024-02-28T04:09:56;1.40;89.10
85671;DHT22;76102;50.890;3.932;2024-02-28T04:12:24;1.30;89.80
85671;DHT22;76102;50.890;3.932;2024-02-28T04:14:49;1.30;90.00
85671;DHT22;76102;50.890;3.932;2024-02-28T04:17:15;1.30;90.20
85671;DHT22;76102;50.890;3.932;2024-02-28T04:19:42;1.30;90.40
85671;DHT22;76102;50.890;3.932;2024-02-28T04:22:08;1.40;90.40
85671;DHT22;76102;50.890;3.932;2024-02-28T04:24:34;1.40;90.60
85671;DHT22;76102;50.890;3.932;2024-02-28T04:27:02;1.50;90.50
85671;DHT22;76102;50.890;3.932;2024-02-28T04:29:33;1.50;90.60
85671;DHT22;76102;50.890;3.932;2024-02-28T04:31:59;1.50;90.60
85671;DHT22;76102;50.890;3.932;2024-02-28T04:34:24;1.50;90.60
85671;DHT22;76102;50.890;3.932;2024-02-28T04:36:50;1.40;90.70
85671;DHT22;76102;50.890;3.932;2024-02-28T04:39:16;1.30;91.00
85671;DHT22;76102;50.890;3.932;2024-02-28T04:41:41;1.30;90.90
85671;DHT22;76102;50.890;3.932;2024-02-28T04:44:11;1.30;91.30
85671;DHT22;76102;50.890;3.932;2024-02-28T04:46:39;1.60;91.10
85671;DHT22;76102;50.890;3.932;2024-02-28T04:49:07;1.60;90.40
85671;DHT22;76102;50.890;3.932;2024-02-28T04:51:34;1.70;90.70
85671;DHT22;76102;50.890;3.932;2024-02-28T04:54:02;1.80;90.70
85671;DHT22;76102;50.890;3.932;2024-02-28T04:56:30;1.90;90.70
85671;DHT22;76102;50.890;3.932;2024-02-28T04:58:56;1.90;90.80
85671;DHT22;76102;50.890;3.932;2024-02-28T05:01:21;1.90;90.80
85671;DHT22;76102;50.890;3.932;2024-02-28T05:03:50;2.20;91.00
85671;DHT22;76102;50.890;3.932;2024-02-28T05:06:15;2.30;90.60
85671;DHT22;76102;50.890;3.932;2024-02-28T05:08:41;2.60;90.80
85671;DHT22;76102;50.890;3.932;2024-02-28T05:11:09;2.70;90.20
85671;DHT22;76102;50.890;3.932;2024-02-28T05:13:35;3.00;90.00
85671;DHT22;76102;50.890;3.932;2024-02-28T05:16:01;3.00;89.20
85671;DHT22;76102;50.890;3.932;2024-02-28T05:18:28;2.90;89.60
85671;DHT22;76102;50.890;3.932;2024-02-28T05:20:54;2.90;89.70
85671;DHT22;76102;50.890;3.932;2024-02-28T05:23:22;2.90;89.70
85671;DHT22;76102;50.890;3.932;2024-02-28T05:25:48;3.10;90.00
85671;DHT22;76102;50.890;3.932;2024-02-28T05:28:18;3.10;89.20
85671;DHT22;76102;50.890;3.932;2024-02-28T05:30:44;3.00;88.90
85671;DHT22;76102;50.890;3.932;2024-02-28T05:33:12;2.90;89.10
85671;DHT22;76102;50.890;3.932;2024-02-28T05:35:38;2.80;88.40
85671;DHT22;76102;50.890;3.932;2024-02-28T05:38:03;2.70;89.00
85671;DHT22;76102;50.890;3.932;2024-02-28T05:40:31;2.60;89.20
85671;DHT22;76102;50.890;3.932;2024-02-28T05:42:57;2.70;89.00
85671;DHT22;76102;50.890;3.932;2024-02-28T05:45:23;2.50;90.10
85671;DHT22;76102;50.890;3.932;2024-02-28T05:47:48;2.50;90.00
85671;DHT22;76102;50.890;3.932;2024-02-28T05:50:14;2.50;90.00
85671;DHT22;76102;50.890;3.932;2024-02-28T05:52:46;2.60;89.80
85671;DHT22;76102;50.890;3.932;2024-02-28T05:55:15;2.60;90.00
85671;DHT22;76102;50.890;3.932;2024-02-28T05:57:43;2.40;90.60
85671;DHT22;76102;50.890;3.932;2024-02-28T06:00:11;2.60;91.10
85671;DHT22;76102;50.890;3.932;2024-02-28T06:02:38;2.70;91.00
85671;DHT22;76102;50.890;3.932;2024-02-28T06:05:04;2.90;90.60
85671;DHT22;76102;50.890;3.932;2024-02-28T06:07:34;2.90;90.50
85671;DHT22;76102;50.890;3.932;2024-02-28T06:10:02;2.90;90.60
85671;DHT22;76102;50.890;3.932;2024-02-28T06:12:29;2.90;90.70
85671;DHT22;76102;50.890;3.932;2024-02-28T06:14:54;3.00;90.70
85671;DHT22;76102;50.890;3.932;2024-02-28T06:17:22;3.00;90.70
85671;DHT22;76102;50.890;3.932;2024-02-28T06:19:52;3.20;90.70
85671;DHT22;76102;50.890;3.932;2024-02-28T06:22:20;3.30;90.40
85671;DHT22;76102;50.890;3.932;2024-02-28T06:24:46;3.40;90.20
85671;DHT22;76102;50.890;3.932;2024-02-28T06:27:14;3.30;90.00
85671;DHT22;76102;50.890;3.932;2024-02-28T06:29:40;3.40;90.10
85671;DHT22;76102;50.890;3.932;2024-02-28T06:32:06;3.30;90.10
85671;DHT22;76102;50.890;3.932;2024-02-28T06:34:32;3.40;90.40
85671;DHT22;76102;50.890;3.932;2024-02-28T06:36:57;3.20;90.50
85671;DHT22;76102;50.890;3.932;2024-02-28T06:39:23;3.50;90.70
85671;DHT22;76102;50.890;3.932;2024-02-28T06:41:53;3.70;90.30
85671;DHT22;76102;50.890;3.932;2024-02-28T06:44:19;3.80;89.80
85671;DHT22;76102;50.890;3.932;2024-02-28T06:46:45;3.90;90.00
85671;DHT22;76102;50.890;3.932;2024-02-28T06:49:10;4.00;88.90
85671;DHT22;76102;50.890;3.932;2024-02-28T06:51:36;3.70;90.10
85671;DHT22;76102;50.890;3.932;2024-02-28T06:54:03;3.80;90.20
85671;DHT22;76102;50.890;3.932;2024-02-28T06:56:34;4.00;90.00
85671;DHT22;76102;50.890;3.932;2024-02-28T06:59:02;4.20;89.80
85671;DHT22;76102;50.890;3.932;2024-02-28T07:01:29;3.90;89.70
85671;DHT22;76102;50.890;3.932;2024-02-28T07:03:57;3.80;90.10
85671;DHT22;76102;50.890;3.932;2024-02-28T07:06:23;3.70;90.60
85671;DHT22;76102;50.890;3.932;2024-02-28T07:08:48;4.10;90.30
85671;DHT22;76102;50.890;3.932;2024-02-28T07:11:14;4.10;89.70
85671;DHT22;76102;50.890;3.932;2024-02-28T07:13:43;4.10;89.70
85671;DHT22;76102;50.890;3.932;2024-02-28T07:16:15;4.10;90.10
85671;DHT22;76102;50.890;3.932;2024-02-28T07:18:41;4.10;90.00
85671;DHT22;76102;50.890;3.932;2024-02-28T07:21:06;4.30;90.20
85671;DHT22;76102;50.890;3.932;2024-02-28T07:23:32;4.40;90.00
85671;DHT22;76102;50.890;3.932;2024-02-28T07:25:58;4.50;89.90
85671;DHT22;76102;50.890;3.932;2024-02-28T07:28:23;4.30;89.70
85671;DHT22;76102;50.890;3.932;2024-02-28T07:30:49;4.30;89.80
85671;DHT22;76102;50.890;3.932;2024-02-28T07:33:15;4.40;89.50
85671;DHT22;76102;50.890;3.932;2024-02-28T07:35:46;4.50;88.90
85671;DHT22;76102;50.890;3.932;2024-02-28T07:38:14;4.30;89.60
85671;DHT22;76102;50.890;3.932;2024-02-28T07:40:45;4.00;90.50
85671;DHT22;76102;50.890;3.932;2024-02-28T07:43:13;4.20;90.50
85671;DHT22;76102;50.890;3.932;2024-02-28T07:45:41;4.40;90.30
85671;DHT22;76102;50.890;3.932;2024-02-28T07:48:07;4.30;90.30
85671;DHT22;76102;50.890;3.932;2024-02-28T07:50:33;4.40;90.20
85671;DHT22;76102;50.890;3.932;2024-02-28T07:52:58;4.20;90.80
85671;DHT22;76102;50.890;3.932;2024-02-28T07:55:24;4.10;90.80
85671;DHT22;76102;50.890;3.932;2024-02-28T07:57:53;4.20;91.00
85671;DHT22;76102;50.890;3.932;2024-02-28T08:00:24;4.30;90.80
85671;DHT22;76102;50.890;3.932;2024-02-28T08:02:50;4.50;90.80
85671;DHT22;76102;50.890;3.932;2024-02-28T08:05:16;4.60;90.50
85671;DHT22;76102;50.890;3.932;2024-02-28T08:07:43;4.70;90.50
85671;DHT22;76102;50.890;3.932;2024-02-28T08:10:10;4.70;90.40
85671;DHT22;76102;50.890;3.932;2024-02-28T08:12:39;4.70;90.20
85671;DHT22;76102;50.890;3.932;2024-02-28T08:15:05;4.70;90.20
85671;DHT22;76102;50.890;3.932;2024-02-28T08:17:31;4.80;90.00
85671;DHT22;76102;50.890;3.932;2024-02-28T08:19:56;4.80;90.30
85671;DHT22;76102;50.890;3.932;2024-02-28T08:22:22;4.80;90.30
85671;DHT22;76102;50.890;3.932;2024-02-28T08:24:55;4.90;90.80
85671;DHT22;76102;50.890;3.932;2024-02-28T08:27:23;5.00;90.00
85671;DHT22;76102;50.890;3.932;2024-02-28T08:29:49;5.00;90.40
85671;DHT22;76102;50.890;3.932;2024-02-28T08:32:18;5.00;90.30
85671;DHT22;76102;50.890;3.932;2024-02-28T08:34:44;5.00;90.40
85671;DHT22;76102;50.890;3.932;2024-02-28T08:37:15;5.10;90.10
85671;DHT22;76102;50.890;3.932;2024-02-28T08:39:44;5.40;90.30
85671;DHT22;76102;50.890;3.932;2024-02-28T08:42:12;5.40;89.70
85671;DHT22;76102;50.890;3.932;2024-02-28T08:44:38;5.40;89.20
85671;DHT22;76102;50.890;3.932;2024-02-28T08:47:06;5.20;89.60
85671;DHT22;76102;50.890;3.932;2024-02-28T08:49:34;5.30;90.30
85671;DHT22;76102;50.890;3.932;2024-02-28T08:52:01;5.40;90.00
85671;DHT22;76102;50.890;3.932;2024-02-28T08:54:26;5.30;90.10
85671;DHT22;76102;50.890;3.932;2024-02-28T08:56:52;5.50;90.00
85671;DHT22;76102;50.890;3.932;2024-02-28T08:59:20;5.70;90.00
85671;DHT22;76102;50.890;3.932;2024-02-28T09:01:48;5.80;88.90
85671;DHT22;76102;50.890;3.932;2024-02-28T09:04:13;5.30;90.20
85671;DHT22;76102;50.890;3.932;2024-02-28T09:06:39;5.50;90.50
85671;DHT22;76102;50.890;3.932;2024-02-28T09:09:07;5.70;89.40
85671;DHT22;76102;50.890;3.932;2024-02-28T09:11:33;5.90;90.10
85671;DHT22;76102;50.890;3.932;2024-02-28T09:13:59;6.20;89.10
85671;DHT22;76102;50.890;3.932;2024-02-28T09:16:27;6.60;87.60
85671;DHT22;76102;50.890;3.932;2024-02-28T09:18:57;6.70;86.50
85671;DHT22;76102;50.890;3.932;2024-02-28T09:21:25;7.00;85.60
85671;DHT22;76102;50.890;3.932;2024-02-28T09:23:51;6.90;86.40
85671;DHT22;76102;50.890;3.932;2024-02-28T09:26:17;6.80;87.00
85671;DHT22;76102;50.890;3.932;2024-02-28T09:28:42;6.80;86.60
85671;DHT22;76102;50.890;3.932;2024-02-28T09:31:10;6.90;87.30
85671;DHT22;76102;50.890;3.932;2024-02-28T09:33:37;7.00;87.80
85671;DHT22;76102;50.890;3.932;2024-02-28T09:36:05;7.30;86.60
85671;DHT22;76102;50.890;3.932;2024-02-28T09:38:30;7.30;87.10
85671;DHT22;76102;50.890;3.932;2024-02-28T09:40:58;7.30;87.20
85671;DHT22;76102;50.890;3.932;2024-02-28T09:43:33;7.50;85.90
85671;DHT22;76102;50.890;3.932;2024-02-28T09:46:08;7.40;85.70
85671;DHT22;76102;50.890;3.932;2024-02-28T09:48:41;7.50;87.10
85671;DHT22;76102;50.890;3.932;2024-02-28T09:51:08;7.60;85.70
85671;DHT22;76102;50.890;3.932;2024-02-28T09:53:37;7.70;85.80
85671;DHT22;76102;50.890;3.932;2024-02-28T09:56:03;7.70;85.40
85671;DHT22;76102;50.890;3.932;2024-02-28T09:58:30;7.80;85.40
85671;DHT22;76102;50.890;3.932;2024-02-28T10:00:59;7.90;85.00
85671;DHT22;76102;50.890;3.932;2024-02-28T10:03:30;7.90;84.80
85671;DHT22;76102;50.890;3.932;2024-02-28T10:05:56;8.10;84.40
85671;DHT22;76102;50.890;3.932;2024-02-28T10:08:26;7.70;85.00
85671;DHT22;76102;50.890;3.932;2024-02-28T10:10:55;7.50;86.20
85671;DHT22;76102;50.890;3.932;2024-02-28T10:13:23;7.60;86.80
85671;DHT22;76102;50.890;3.932;2024-02-28T10:15:52;7.80;85.40
85671;DHT22;76102;50.890;3.932;2024-02-28T10:18:19;7.90;85.10
85671;DHT22;76102;50.890;3.932;2024-02-28T10:20:47;8.10;85.40
85671;DHT22;76102;50.890;3.932;2024-02-28T10:23:13;8.00;85.90
85671;DHT22;76102;50.890;3.932;2024-02-28T10:25:46;8.00;85.90
85671;DHT22;76102;50.890;3.932;2024-02-28T10:28:14;8.30;85.30
85671;DHT22;76102;50.890;3.932;2024-02-28T10:30:41;8.60;85.10
85671;DHT22;76102;50.890;3.932;2024-02-28T10:33:14;8.90;83.00
85671;DHT22;76102;50.890;3.932;2024-02-28T10:35:45;9.20;81.40
85671;DHT22;76102;50.890;3.932;2024-02-28T10:38:14;9.00;81.50
85671;DHT22;76102;50.890;3.932;2024-02-28T10:40:43;9.30;81.50
85671;DHT22;76102;50.890;3.932;2024-02-28T10:43:10;9.00;81.60
85671;DHT22;76102;50.890;3.932;2024-02-28T10:45:38;9.10;81.50
85671;DHT22;76102;50.890;3.932;2024-02-28T10:48:05;8.70;82.60
85671;DHT22;76102;50.890;3.932;2024-02-28T10:50:31;8.70;84.30
85671;DHT22;76102;50.890;3.932;2024-02-28T10:53:01;8.70;83.40
85671;DHT22;76102;50.890;3.932;2024-02-28T10:55:34;8.80;82.80
85671;DHT22;76102;50.890;3.932;2024-02-28T10:58:07;8.90;82.90
85671;DHT22;76102;50.890;3.932;2024-02-28T11:00:39;9.00;82.00
85671;DHT22;76102;50.890;3.932;2024-02-28T11:03:08;9.00;83.50
85671;DHT22;76102;50.890;3.932;2024-02-28T11:05:40;9.30;82.40
85671;DHT22;76102;50.890;3.932;2024-02-28T11:08:21;9.70;80.40
85671;DHT22;76102;50.890;3.932;2024-02-28T11:10:47;9.80;80.60
85671;DHT22;76102;50.890;3.932;2024-02-28T11:13:23;9.40;80.70
85671;DHT22;76102;50.890;3.932;2024-02-28T11:15:49;9.40;81.60
85671;DHT22;76102;50.890;3.932;2024-02-28T11:18:18;9.70;81.10
85671;DHT22;76102;50.890;3.932;2024-02-28T11:20:44;10.00;80.60
85671;DHT22;76102;50.890;3.932;2024-02-28T11:23:17;10.10;78.60
85671;DHT22;76102;50.890;3.932;2024-02-28T11:25:45;10.10;80.20
85671;DHT22;76102;50.890;3.932;2024-02-28T11:28:11;10.10;79.00
85671;DHT22;76102;50.890;3.932;2024-02-28T11:30:40;10.00;78.50
85671;DHT22;76102;50.890;3.932;2024-02-28T11:33:05;9.40;80.00
85671;DHT22;76102;50.890;3.932;2024-02-28T11:35:34;9.00;82.70
85671;DHT22;76102;50.890;3.932;2024-02-28T11:38:03;9.30;81.60
85671;DHT22;76102;50.890;3.932;2024-02-28T11:40:35;9.30;81.90
85671;DHT22;76102;50.890;3.932;2024-02-28T11:43:01;9.40;82.70
85671;DHT22;76102;50.890;3.932;2024-02-28T11:45:28;9.30;82.70
85671;DHT22;76102;50.890;3.932;2024-02-28T11:47:55;9.30;81.80
85671;DHT22;76102;50.890;3.932;2024-02-28T11:50:21;9.30;82.30
85671;DHT22;76102;50.890;3.932;2024-02-28T11:52:51;9.50;82.00
85671;DHT22;76102;50.890;3.932;2024-02-28T11:55:19;9.80;80.40
85671;DHT22;76102;50.890;3.932;2024-02-28T11:57:45;9.80;80.50
85671;DHT22;76102;50.890;3.932;2024-02-28T12:00:12;9.60;80.10
85671;DHT22;76102;50.890;3.932;2024-02-28T12:02:40;9.50;81.50
85671;DHT22;76102;50.890;3.932;2024-02-28T12:05:06;9.50;81.70
85671;DHT22;76102;50.890;3.932;2024-02-28T12:07:32;9.70;81.40
85671;DHT22;76102;50.890;3.932;2024-02-28T12:09:58;10.00;79.10
85671;DHT22;76102;50.890;3.932;2024-02-28T12:12:29;10.10;79.70
85671;DHT22;76102;50.890;3.932;2024-02-28T12:14:58;10.00;79.40
85671;DHT22;76102;50.890;3.932;2024-02-28T12:17:25;10.00;78.90
85671;DHT22;76102;50.890;3.932;2024-02-28T12:19:54;10.40;79.30
85671;DHT22;76102;50.890;3.932;2024-02-28T12:22:20;10.60;77.60
85671;DHT22;76102;50.890;3.932;2024-02-28T12:24:46;10.40;77.40
85671;DHT22;76102;50.890;3.932;2024-02-28T12:27:14;10.10;78.20
85671;DHT22;76102;50.890;3.932;2024-02-28T12:29:42;10.20;78.20
85671;DHT22;76102;50.890;3.932;2024-02-28T12:32:09;10.20;78.10
85671;DHT22;76102;50.890;3.932;2024-02-28T12:34:34;10.40;77.10
85671;DHT22;76102;50.890;3.932;2024-02-28T12:37:03;10.20;77.10
85671;DHT22;76102;50.890;3.932;2024-02-28T12:39:32;10.10;78.50
85671;DHT22;76102;50.890;3.932;2024-02-28T12:42:00;10.40;76.90
85671;DHT22;76102;50.890;3.932;2024-02-28T12:44:28;10.70;75.80
85671;DHT22;76102;50.890;3.932;2024-02-28T12:46:54;10.50;75.40
85671;DHT22;76102;50.890;3.932;2024-02-28T12:49:19;10.30;76.80
85671;DHT22;76102;50.890;3.932;2024-02-28T12:51:46;10.00;76.90
85671;DHT22;76102;50.890;3.932;2024-02-28T12:54:14;9.80;78.80
85671;DHT22;76102;50.890;3.932;2024-02-28T12:56:42;9.80;78.70
85671;DHT22;76102;50.890;3.932;2024-02-28T12:59:11;9.90;78.50
85671;DHT22;76102;50.890;3.932;2024-02-28T13:01:39;10.20;77.50
85671;DHT22;76102;50.890;3.932;2024-02-28T13:04:05;10.00;77.30
85671;DHT22;76102;50.890;3.932;2024-02-28T13:06:31;10.20;77.90
85671;DHT22;76102;50.890;3.932;2024-02-28T13:08:59;10.40;76.80
85671;DHT22;76102;50.890;3.932;2024-02-28T13:11:24;10.70;77.60
85671;DHT22;76102;50.890;3.932;2024-02-28T13:13:51;11.10;75.70
85671;DHT22;76102;50.890;3.932;2024-02-28T13:16:18;11.20;74.30
85671;DHT22;76102;50.890;3.932;2024-02-28T13:18:47;11.30;73.70
85671;DHT22;76102;50.890;3.932;2024-02-28T13:21:12;11.40;73.40
85671;DHT22;76102;50.890;3.932;2024-02-28T13:23:38;10.90;73.20
85671;DHT22;76102;50.890;3.932;2024-02-28T13:26:05;10.70;75.10
85671;DHT22;76102;50.890;3.932;2024-02-28T13:28:33;10.50;76.30
85671;DHT22;76102;50.890;3.932;2024-02-28T13:31:03;10.80;76.20
85671;DHT22;76102;50.890;3.932;2024-02-28T13:33:31;11.00;75.70
85671;DHT22;76102;50.890;3.932;2024-02-28T13:35:57;11.00;74.60
85671;DHT22;76102;50.890;3.932;2024-02-28T13:38:23;10.80;74.80
85671;DHT22;76102;50.890;3.932;2024-02-28T13:40:49;10.80;76.20
85671;DHT22;76102;50.890;3.932;2024-02-28T13:43:15;10.50;76.00
85671;DHT22;76102;50.890;3.932;2024-02-28T13:45:46;10.40;77.50
85671;DHT22;76102;50.890;3.932;2024-02-28T13:48:16;10.40;75.80
85671;DHT22;76102;50.890;3.932;2024-02-28T13:50:45;10.50;76.40
85671;DHT22;76102;50.890;3.932;2024-02-28T13:53:11;10.80;75.90
85671;DHT22;76102;50.890;3.932;2024-02-28T13:55:37;10.90;75.90
85671;DHT22;76102;50.890;3.932;2024-02-28T13:58:06;10.70;75.90
85671;DHT22;76102;50.890;3.932;2024-02-28T14:00:35;10.70;77.00
85671;DHT22;76102;50.890;3.932;2024-02-28T14:03:01;10.50;76.70
85671;DHT22;76102;50.890;3.932;2024-02-28T14:05:28;10.30;76.40
85671;DHT22;76102;50.890;3.932;2024-02-28T14:07:56;10.40;76.90
85671;DHT22;76102;50.890;3.932;2024-02-28T14:10:31;10.90;76.80
85671;DHT22;76102;50.890;3.932;2024-02-28T14:12:57;10.80;75.10
85671;DHT22;76102;50.890;3.932;2024-02-28T14:15:25;10.50;74.80
85671;DHT22;76102;50.890;3.932;2024-02-28T14:17:54;10.40;75.30
85671;DHT22;76102;50.890;3.932;2024-02-28T14:20:19;10.40;76.60
85671;DHT22;76102;50.890;3.932;2024-02-28T14:22:45;10.50;75.60
85671;DHT22;76102;50.890;3.932;2024-02-28T14:25:16;10.60;75.20
85671;DHT22;76102;50.890;3.932;2024-02-28T14:27:46;10.80;75.80
85671;DHT22;76102;50.890;3.932;2024-02-28T14:30:13;10.90;76.00
85671;DHT22;76102;50.890;3.932;2024-02-28T14:32:42;11.10;74.10
85671;DHT22;76102;50.890;3.932;2024-02-28T14:35:11;11.20;74.20
85671;DHT22;76102;50.890;3.932;2024-02-28T14:37:37;10.70;74.40
85671;DHT22;76102;50.890;3.932;2024-02-28T14:40:06;10.60;75.10
85671;DHT22;76102;50.890;3.932;2024-02-28T14:42:42;10.60;75.00
85671;DHT22;76102;50.890;3.932;2024-02-28T14:45:10;10.90;76.10
85671;DHT22;76102;50.890;3.932;2024-02-28T14:47:38;11.10;74.80
85671;DHT22;76102;50.890;3.932;2024-02-28T14:50:05;11.10;73.30
85671;DHT22;76102;50.890;3.932;2024-02-28T14:52:35;10.90;74.70
85671;DHT22;76102;50.890;3.932;2024-02-28T14:55:01;10.80;76.00
85671;DHT22;76102;50.890;3.932;2024-02-28T14:57:27;10.60;75.50
85671;DHT22;76102;50.890;3.932;2024-02-28T14:59:52;10.60;75.10
85671;DHT22;76102;50.890;3.932;2024-02-28T15:02:19;10.40;76.00
85671;DHT22;76102;50.890;3.932;2024-02-28T15:04:45;10.10;76.70
85671;DHT22;76102;50.890;3.932;2024-02-28T15:07:15;10.30;76.80
85671;DHT22;76102;50.890;3.932;2024-02-28T15:09:47;10.20;76.70
85671;DHT22;76102;50.890;3.932;2024-02-28T15:12:13;10.20;76.70
85671;DHT22;76102;50.890;3.932;2024-02-28T15:14:41;10.30;77.10
85671;DHT22;76102;50.890;3.932;2024-02-28T15:17:09;10.60;75.90
85671;DHT22;76102;50.890;3.932;2024-02-28T15:19:37;10.60;74.80
85671;DHT22;76102;50.890;3.932;2024-02-28T15:22:03;10.70;74.50
85671;DHT22;76102;50.890;3.932;2024-02-28T15:24:29;10.70;74.40
85671;DHT22;76102;50.890;3.932;2024-02-28T15:26:57;10.60;75.10
85671;DHT22;76102;50.890;3.932;2024-02-28T15:29:23;10.60;75.00
85671;DHT22;76102;50.890;3.932;2024-02-28T15:31:53;10.40;74.90
85671;DHT22;76102;50.890;3.932;2024-02-28T15:34:21;10.30;75.80
85671;DHT22;76102;50.890;3.932;2024-02-28T15:36:47;10.20;76.90
85671;DHT22;76102;50.890;3.932;2024-02-28T15:39:15;10.20;76.90
85671;DHT22;76102;50.890;3.932;2024-02-28T15:41:43;10.40;76.20
85671;DHT22;76102;50.890;3.932;2024-02-28T15:44:12;10.40;75.40